createdAt,value
2023-04-11T00:01:26.446Z,10.63
2023-04-11T00:03:55.025Z,10.59
2023-04-11T00:06:23.302Z,10.50
2023-04-11T00:08:54.255Z,10.45
2023-04-11T00:11:27.576Z,10.50
2023-04-11T00:14:02.270Z,10.49
2023-04-11T00:16:34.110Z,10.46
2023-04-11T00:19:04.763Z,10.40
2023-04-11T00:21:33.147Z,10.36
2023-04-11T00:24:03.648Z,10.29
2023-04-11T00:26:31.975Z,10.24
2023-04-11T00:29:01.477Z,10.18
2023-04-11T00:31:29.634Z,10.15
2023-04-11T00:33:58.244Z,10.09
2023-04-11T00:36:27.810Z,10.08
2023-04-11T00:38:58.385Z,10.05
2023-04-11T00:41:26.834Z,10.06
2023-04-11T00:43:55.358Z,10.04
2023-04-11T00:46:27.905Z,10.04
2023-04-11T00:48:58.708Z,10.02
2023-04-11T00:51:27.424Z,10.02
2023-04-11T00:53:55.952Z,9.99
2023-04-11T00:56:24.470Z,9.98
2023-04-11T00:58:56.003Z,9.93
2023-04-11T01:01:26.742Z,9.93
2023-04-11T01:03:55.360Z,9.90
2023-04-11T01:06:24.667Z,9.86
2023-04-11T01:08:53.710Z,9.75
2023-04-11T01:11:22.421Z,9.67
2023-04-11T01:13:53.244Z,9.54
2023-04-11T01:16:22.220Z,9.43
2023-04-11T01:18:51.856Z,9.15
2023-04-11T01:21:21.775Z,8.91
2023-04-11T01:23:54.339Z,8.75
2023-04-11T01:26:22.932Z,8.61
2023-04-11T01:28:52.326Z,8.55
2023-04-11T01:31:23.040Z,8.41
2023-04-11T01:33:51.357Z,8.36
2023-04-11T01:36:23.144Z,8.27
2023-04-11T01:38:52.969Z,8.17
2023-04-11T01:41:22.471Z,8.12
2023-04-11T01:43:51.395Z,8.13
2023-04-11T01:46:20.417Z,8.09
2023-04-11T01:48:51.209Z,7.97
2023-04-11T01:51:19.945Z,7.94
2023-04-11T01:53:48.652Z,7.95
2023-04-11T01:56:18.399Z,7.99
2023-04-11T01:58:48.528Z,7.97
2023-04-11T02:01:19.144Z,7.97
2023-04-11T02:03:48.165Z,7.98
2023-04-11T02:06:17.009Z,7.90
2023-04-11T02:08:48.893Z,7.88
2023-04-11T02:11:18.634Z,7.83
2023-04-11T02:13:52.061Z,7.86
2023-04-11T02:16:20.875Z,7.85
2023-04-11T02:18:49.600Z,7.85
2023-04-11T02:21:17.942Z,7.80
2023-04-11T02:23:46.576Z,7.74
2023-04-11T02:26:18.410Z,7.68
2023-04-11T02:28:47.098Z,7.63
2023-04-11T02:31:17.853Z,7.64
2023-04-11T02:33:46.521Z,7.61
2023-04-11T02:36:14.978Z,7.57
2023-04-11T02:38:43.583Z,7.54
2023-04-11T02:41:12.444Z,7.57
2023-04-11T02:43:45.351Z,7.50
2023-04-11T02:46:14.287Z,7.55
2023-04-11T02:48:45.576Z,7.57
2023-04-11T02:51:15.438Z,7.55
2023-04-11T02:53:44.059Z,7.54
2023-04-11T02:56:19.049Z,7.53
2023-04-11T02:58:52.796Z,7.42
2023-04-11T03:01:25.195Z,7.45
2023-04-11T03:03:56.068Z,7.44
2023-04-11T03:06:29.883Z,7.47
2023-04-11T03:09:02.320Z,7.48
2023-04-11T03:11:31.058Z,7.50
2023-04-11T03:14:01.170Z,7.44
2023-04-11T03:16:30.213Z,7.43
2023-04-11T03:19:01.419Z,7.33
2023-04-11T03:21:29.959Z,7.47
2023-04-11T03:23:58.965Z,7.52
2023-04-11T03:26:28.075Z,7.53
2023-04-11T03:29:02.550Z,7.49
2023-04-11T03:31:36.819Z,7.51
2023-04-11T03:34:07.618Z,7.51
2023-04-11T03:36:37.024Z,7.49
2023-04-11T03:39:07.174Z,7.40
2023-04-11T03:41:36.179Z,7.47
2023-04-11T03:44:07.917Z,7.40
2023-04-11T03:46:37.044Z,7.43
2023-04-11T03:50:22.084Z,7.35
2023-04-11T03:52:57.281Z,7.28
2023-04-11T03:55:29.743Z,7.35
2023-04-11T03:58:03.129Z,7.32
2023-04-11T04:00:33.422Z,7.23
2023-04-11T04:03:08.548Z,7.22
2023-04-11T04:05:41.567Z,7.17
2023-04-11T04:08:11.355Z,7.11
2023-04-11T04:10:47.053Z,7.07
2023-04-11T04:13:16.809Z,7.00
2023-04-11T04:15:52.815Z,6.99
2023-04-11T04:18:28.820Z,6.95
2023-04-11T04:20:59.400Z,6.96
2023-04-11T04:23:28.242Z,6.94
2023-04-11T04:26:26.197Z,6.87
2023-04-11T04:29:06.076Z,6.94
2023-04-11T04:31:50.762Z,6.96
2023-04-11T04:34:24.865Z,6.98
2023-04-11T04:36:59.578Z,6.84
2023-04-11T04:39:38.583Z,6.89
2023-04-11T04:42:10.159Z,6.93
2023-04-11T04:44:41.859Z,6.92
2023-04-11T04:47:19.029Z,6.88
2023-04-11T04:49:47.965Z,6.84
2023-04-11T04:52:19.227Z,6.83
2023-04-11T04:54:48.530Z,6.87
2023-04-11T04:57:17.257Z,6.87
2023-04-11T04:59:48.092Z,6.81
2023-04-11T05:02:17.366Z,6.77
2023-04-11T05:04:46.898Z,6.81
2023-04-11T05:07:16.134Z,6.83
2023-04-11T05:09:48.827Z,6.86
2023-04-11T05:12:27.188Z,6.84
2023-04-11T05:15:00.974Z,6.88
2023-04-11T05:17:31.991Z,6.92
2023-04-11T05:20:00.710Z,6.90
2023-04-11T05:22:32.481Z,6.97
2023-04-11T05:25:03.698Z,7.00
2023-04-11T05:27:32.677Z,6.99
2023-04-11T05:30:01.612Z,7.05
2023-04-11T05:32:34.267Z,6.99
2023-04-11T05:35:03.235Z,6.97
2023-04-11T05:37:41.526Z,7.01
2023-04-11T05:40:13.829Z,7.00
2023-04-11T05:42:43.584Z,7.01
2023-04-11T05:45:12.113Z,7.02
2023-04-11T05:47:40.536Z,7.08
2023-04-11T05:50:09.762Z,6.93
2023-04-11T05:52:42.893Z,7.10
2023-04-11T05:55:11.832Z,7.10
2023-04-11T05:57:41.452Z,7.12
2023-04-11T06:00:13.712Z,7.19
2023-04-11T06:02:44.757Z,7.23
2023-04-11T06:05:17.912Z,7.36
2023-04-11T06:07:46.483Z,7.38
2023-04-11T06:10:14.940Z,7.42
2023-04-11T06:12:44.759Z,7.56
2023-04-11T06:15:16.140Z,7.84
2023-04-11T06:17:45.296Z,7.95
2023-04-11T06:20:13.922Z,8.02
2023-04-11T06:22:42.113Z,8.12
2023-04-11T06:25:11.052Z,8.09
2023-04-11T06:27:39.304Z,8.25
2023-04-11T06:30:10.684Z,8.31
2023-04-11T06:32:41.359Z,8.26
2023-04-11T06:35:10.853Z,8.39
2023-04-11T06:37:42.495Z,8.50
2023-04-11T06:40:13.784Z,8.64
2023-04-11T06:42:43.422Z,9.00
2023-04-11T06:45:16.307Z,9.21
2023-04-11T06:47:44.635Z,9.25
2023-04-11T06:50:15.333Z,9.52
2023-04-11T06:52:43.697Z,9.65
2023-04-11T06:55:14.694Z,9.99
2023-04-11T06:57:44.528Z,10.11
2023-04-11T07:00:13.803Z,10.25
2023-04-11T07:02:45.135Z,10.27
2023-04-11T07:05:13.486Z,10.30
2023-04-11T07:07:41.963Z,10.99
2023-04-11T07:10:11.147Z,11.57
2023-04-11T07:12:39.405Z,12.40
2023-04-11T07:15:09.091Z,12.48
2023-04-11T07:17:37.368Z,13.22
2023-04-11T07:20:09.916Z,13.77
2023-04-11T07:22:38.459Z,13.57
2023-04-11T07:25:07.525Z,13.42
2023-04-11T07:27:38.310Z,14.16
2023-04-11T07:30:07.806Z,14.18
2023-04-11T07:32:38.574Z,14.14
2023-04-11T07:35:08.883Z,14.12
2023-04-11T07:37:37.128Z,13.61
2023-04-11T07:40:11.430Z,14.62
2023-04-11T07:42:39.672Z,15.48
2023-04-11T07:45:10.700Z,16.26
2023-04-11T07:47:39.352Z,15.90
2023-04-11T07:50:09.797Z,17.17
2023-04-11T07:52:37.951Z,17.35
2023-04-11T07:55:09.191Z,16.08
2023-04-11T07:57:44.648Z,17.46
2023-04-11T08:00:20.967Z,16.03
2023-04-11T08:02:49.740Z,15.75
2023-04-11T08:05:19.753Z,16.84
2023-04-11T08:07:48.212Z,17.53
2023-04-11T08:10:16.875Z,17.32
2023-04-11T08:12:45.293Z,16.63
2023-04-11T08:15:13.831Z,16.34
2023-04-11T08:17:44.043Z,14.27
2023-04-11T08:20:14.095Z,13.52
2023-04-11T08:22:47.044Z,12.96
2023-04-11T08:25:16.478Z,12.35
2023-04-11T08:27:44.748Z,12.03
2023-04-11T08:30:16.368Z,12.29
2023-04-11T08:32:51.870Z,11.93
2023-04-11T08:35:22.843Z,12.37
2023-04-11T08:37:52.441Z,12.39
2023-04-11T08:40:20.876Z,12.95
2023-04-11T08:42:49.246Z,14.37
2023-04-11T08:45:19.555Z,16.33
2023-04-11T08:51:24.221Z,16.72
2023-04-11T08:53:59.717Z,15.46
2023-04-11T08:56:28.022Z,14.90
2023-04-11T08:58:56.386Z,14.64
2023-04-11T09:01:33.192Z,14.48
2023-04-11T09:04:06.243Z,14.60
2023-04-11T09:06:40.268Z,15.12
2023-04-11T09:09:09.712Z,14.43
2023-04-11T09:11:54.874Z,14.33
2023-04-11T09:14:27.101Z,13.42
2023-04-11T09:16:59.075Z,13.12
2023-04-11T09:19:28.550Z,11.89
2023-04-11T09:22:00.553Z,11.57
2023-04-11T09:24:29.665Z,12.50
2023-04-11T09:27:13.886Z,13.43
2023-04-11T09:29:43.680Z,13.68
2023-04-11T09:32:32.115Z,13.95
2023-04-11T09:35:10.565Z,14.22
2023-04-11T09:37:48.355Z,14.44
2023-04-11T09:40:20.634Z,14.03
2023-04-11T09:42:50.071Z,13.41
2023-04-11T09:45:19.869Z,13.17
2023-04-11T09:47:48.636Z,13.26
2023-04-11T09:50:18.061Z,13.03
2023-04-11T09:52:48.371Z,12.80
2023-04-11T09:55:20.905Z,13.16
2023-04-11T09:57:51.009Z,13.34
2023-04-11T10:00:21.908Z,12.97
2023-04-11T10:02:53.079Z,13.21
2023-04-11T10:05:28.159Z,13.53
2023-04-11T10:08:03.665Z,13.36
2023-04-11T10:10:36.725Z,13.80
2023-04-11T10:13:38.529Z,15.31
2023-04-11T10:16:08.645Z,16.28
2023-04-11T10:19:00.549Z,17.30
2023-04-11T10:21:42.732Z,18.40
2023-04-11T10:24:16.641Z,18.66
2023-04-11T10:26:50.587Z,20.15
2023-04-11T10:29:51.661Z,17.98
2023-04-11T10:32:24.752Z,15.89
2023-04-11T10:35:23.942Z,14.46
2023-04-11T10:37:52.521Z,15.84
2023-04-11T10:40:22.894Z,15.66
2023-04-11T10:42:51.750Z,16.56
2023-04-11T10:45:26.653Z,18.22
2023-04-11T10:48:11.605Z,19.43
2023-04-11T10:50:42.915Z,20.64
2023-04-11T10:53:36.429Z,20.27
2023-04-11T10:56:06.600Z,21.16
2023-04-11T10:58:37.131Z,19.64
2023-04-11T11:01:36.955Z,20.73
2023-04-11T11:04:11.475Z,22.19
2023-04-11T11:06:47.382Z,21.64
2023-04-11T11:09:24.090Z,22.08
2023-04-11T11:12:10.452Z,23.19
2023-04-11T11:14:41.353Z,22.83
2023-04-11T11:17:10.137Z,23.16
2023-04-11T11:19:38.442Z,22.46
2023-04-11T11:22:16.187Z,22.07
2023-04-11T11:24:44.412Z,22.44
2023-04-11T11:27:24.096Z,22.50
2023-04-11T11:29:54.669Z,21.50
2023-04-11T11:32:25.481Z,21.26
2023-04-11T11:34:57.487Z,20.65
2023-04-11T11:37:26.486Z,20.35
2023-04-11T11:39:58.641Z,19.45
2023-04-11T11:42:31.759Z,17.64
2023-04-11T11:45:15.517Z,18.02
2023-04-11T11:47:44.234Z,18.98
2023-04-11T11:50:13.070Z,19.48
2023-04-11T11:52:43.782Z,17.64
2023-04-11T11:55:32.184Z,18.08
2023-04-11T11:58:05.766Z,18.89
2023-04-11T12:00:38.738Z,17.37
2023-04-11T12:03:09.857Z,17.03
2023-04-11T12:05:38.885Z,16.31
2023-04-11T12:08:08.996Z,15.16
2023-04-11T12:10:41.187Z,15.00
2023-04-11T12:13:17.989Z,14.14
2023-04-11T12:15:50.299Z,14.27
2023-04-11T12:18:21.865Z,15.10
2023-04-11T12:20:51.131Z,15.80
2023-04-11T12:23:19.988Z,16.05
2023-04-11T12:25:48.982Z,16.22
2023-04-11T12:28:18.702Z,16.09
2023-04-11T12:30:47.051Z,16.10
2023-04-11T12:33:16.614Z,16.30
2023-04-11T12:35:45.401Z,16.86
2023-04-11T12:38:17.315Z,16.13
2023-04-11T12:40:46.651Z,15.70
2023-04-11T12:43:15.321Z,15.02
2023-04-11T12:45:44.845Z,15.10
2023-04-11T12:48:13.695Z,15.28
2023-04-11T12:50:42.361Z,16.13
2023-04-11T12:53:11.116Z,15.95
2023-04-11T12:55:39.610Z,16.17
2023-04-11T12:58:08.232Z,16.68
2023-04-11T13:00:37.437Z,16.45
2023-04-11T13:03:07.220Z,16.36
2023-04-11T13:05:37.274Z,15.93
2023-04-11T13:08:05.677Z,15.90
2023-04-11T13:10:34.348Z,15.06
2023-04-11T13:13:11.763Z,15.76
2023-04-11T13:15:46.399Z,15.55
2023-04-11T13:18:16.370Z,15.69
2023-04-11T13:20:44.728Z,15.43
2023-04-11T13:23:14.884Z,15.60
2023-04-11T13:25:45.160Z,15.20
2023-04-11T13:28:14.012Z,14.76
2023-04-11T13:30:45.641Z,14.41
2023-04-11T13:33:13.993Z,14.87
2023-04-11T13:35:43.998Z,14.84
2023-04-11T13:38:15.196Z,14.62
2023-04-11T13:40:43.905Z,14.76
2023-04-11T13:43:12.171Z,14.69
2023-04-11T13:45:40.307Z,15.18
2023-04-11T13:48:09.858Z,15.53
2023-04-11T13:52:24.007Z,15.56
2023-04-11T13:54:52.181Z,15.61
2023-04-11T13:57:21.244Z,15.81
2023-04-11T13:59:49.805Z,15.57
2023-04-11T14:02:18.180Z,15.59
2023-04-11T14:04:46.785Z,16.09
2023-04-11T14:07:14.997Z,15.94
2023-04-11T14:09:44.883Z,15.41
2023-04-11T14:12:13.187Z,15.68
2023-04-11T14:14:41.739Z,15.23
2023-04-11T14:17:10.283Z,15.12
2023-04-11T14:19:38.471Z,15.34
2023-04-11T14:22:09.386Z,15.21
2023-04-11T14:24:37.646Z,15.24
2023-04-11T14:27:08.627Z,15.08
2023-04-11T14:29:37.605Z,14.96
2023-04-11T14:32:07.897Z,15.09
2023-04-11T14:34:36.453Z,15.31
2023-04-11T14:37:04.714Z,15.32
2023-04-11T14:39:33.727Z,15.36
2023-04-11T14:42:02.781Z,15.46
2023-04-11T14:44:32.881Z,15.23
2023-04-11T14:47:01.052Z,14.79
2023-04-11T14:49:32.263Z,14.71
2023-04-11T14:52:19.111Z,14.79
2023-04-11T14:54:49.888Z,14.79
2023-04-11T14:57:18.619Z,14.66
2023-04-11T14:59:48.657Z,14.29
2023-04-11T15:02:17.090Z,14.21
2023-04-11T15:04:45.999Z,13.72
2023-04-11T15:07:17.637Z,13.78
2023-04-11T15:09:48.636Z,13.47
2023-04-11T15:12:16.934Z,13.34
2023-04-11T15:14:45.477Z,13.22
2023-04-11T15:17:15.531Z,13.19
2023-04-11T15:19:43.816Z,13.17
2023-04-11T15:22:12.583Z,13.20
2023-04-11T15:24:40.794Z,13.36
2023-04-11T15:27:09.805Z,13.33
2023-04-11T15:29:39.605Z,13.36
2023-04-11T15:32:07.983Z,13.44
2023-04-11T15:34:37.959Z,13.53
2023-04-11T15:37:13.517Z,13.61
2023-04-11T15:39:42.098Z,13.72
2023-04-11T15:42:10.437Z,13.60
2023-04-11T15:44:39.427Z,13.41
2023-04-11T15:47:07.869Z,13.57
2023-04-11T15:49:38.174Z,13.39
2023-04-11T15:52:07.093Z,13.41
2023-04-11T15:54:35.897Z,13.53
2023-04-11T15:57:04.848Z,13.35
2023-04-11T15:59:34.456Z,13.39
2023-04-11T16:02:03.821Z,13.21
2023-04-11T16:04:32.592Z,13.13
2023-04-11T16:07:02.401Z,13.27
2023-04-11T16:09:30.932Z,13.30
2023-04-11T16:11:59.586Z,13.32
2023-04-11T16:14:30.701Z,13.41
2023-04-11T16:16:59.319Z,13.44
2023-04-11T16:19:27.713Z,13.25
2023-04-11T16:21:55.952Z,13.06
2023-04-11T16:24:29.846Z,12.97
2023-04-11T16:27:01.442Z,12.88
2023-04-11T16:29:29.840Z,12.76
2023-04-11T16:31:58.240Z,12.64
2023-04-11T16:34:28.699Z,12.56
2023-04-11T16:36:59.919Z,12.55
2023-04-11T16:39:29.590Z,12.55
2023-04-11T16:41:58.432Z,12.39
2023-04-11T16:44:27.147Z,12.54
2023-04-11T16:46:58.082Z,12.53
2023-04-11T16:49:26.965Z,12.51
2023-04-11T16:51:55.389Z,12.45
2023-04-11T16:54:26.592Z,12.42
2023-04-11T16:56:58.892Z,12.42
2023-04-11T16:59:30.674Z,12.34
2023-04-11T17:01:59.824Z,12.31
2023-04-11T17:04:28.904Z,12.21
2023-04-11T17:07:00.012Z,12.17
2023-04-11T17:09:28.438Z,12.13
2023-04-11T17:11:58.360Z,12.07
2023-04-11T17:14:27.618Z,11.98
2023-04-11T17:16:56.086Z,11.89
2023-04-11T17:19:25.651Z,11.78
2023-04-11T17:21:54.218Z,11.69
2023-04-11T17:24:23.210Z,11.57
2023-04-11T17:26:51.821Z,11.44
2023-04-11T17:29:22.002Z,11.31
2023-04-11T17:31:50.566Z,11.19
2023-04-11T17:34:18.988Z,11.08
2023-04-11T17:36:48.023Z,10.95
2023-04-11T17:39:19.552Z,10.85
2023-04-11T17:41:50.802Z,10.79
2023-04-11T17:44:19.416Z,10.69
2023-04-11T17:46:52.919Z,10.61
2023-04-11T17:49:21.739Z,10.52
2023-04-11T17:51:59.078Z,10.46
2023-04-11T17:54:28.111Z,10.36
2023-04-11T17:56:57.518Z,10.29
2023-04-11T17:59:26.236Z,10.19
2023-04-11T18:01:57.302Z,10.19
2023-04-11T18:04:26.280Z,10.12
2023-04-11T18:06:55.072Z,10.08
2023-04-11T18:09:32.015Z,9.99
2023-04-11T18:12:04.975Z,9.89
2023-04-11T18:14:34.339Z,9.77
2023-04-11T18:17:06.883Z,9.69
2023-04-11T18:19:35.520Z,9.66
2023-04-11T18:22:03.888Z,9.60
2023-04-11T18:24:32.212Z,9.53
2023-04-11T18:27:00.794Z,9.50
2023-04-11T18:29:29.353Z,9.45
2023-04-11T18:31:59.975Z,9.41
2023-04-11T18:34:30.023Z,9.38
2023-04-11T18:36:58.459Z,9.32
2023-04-11T18:39:30.718Z,9.31
2023-04-11T18:41:59.119Z,9.25
2023-04-11T18:44:27.766Z,9.27
2023-04-11T18:47:01.819Z,9.24
2023-04-11T18:49:33.721Z,9.19
2023-04-11T18:53:26.150Z,9.17
2023-04-11T18:55:54.739Z,9.17
2023-04-11T18:58:26.796Z,9.25
2023-04-11T19:00:58.779Z,9.22
2023-04-11T19:03:30.302Z,9.23
2023-04-11T19:06:02.120Z,9.18
2023-04-11T19:08:34.692Z,9.20
2023-04-11T19:11:04.072Z,9.15
2023-04-11T19:13:33.067Z,9.12
2023-04-11T19:16:01.973Z,9.11
2023-04-11T19:18:30.662Z,9.08
2023-04-11T19:20:59.339Z,9.02
2023-04-11T19:23:28.551Z,8.99
2023-04-11T19:26:00.733Z,8.94
2023-04-11T19:28:29.432Z,8.89
2023-04-11T19:31:00.404Z,8.84
2023-04-11T19:33:31.596Z,8.85
2023-04-11T19:36:02.793Z,8.81
2023-04-11T19:38:31.751Z,8.80
2023-04-11T19:41:13.099Z,8.84
2023-04-11T19:43:42.940Z,8.87
2023-04-11T19:46:17.301Z,8.89
2023-04-11T19:48:48.356Z,8.93
2023-04-11T19:51:17.821Z,9.01
2023-04-11T19:53:52.211Z,8.96
2023-04-11T19:56:26.667Z,9.01
2023-04-11T19:59:45.457Z,8.98
2023-04-11T20:02:24.584Z,8.99
2023-04-11T20:06:05.952Z,8.92
2023-04-11T20:08:36.679Z,8.94
2023-04-11T20:11:05.894Z,8.92
2023-04-11T20:13:38.533Z,8.91
2023-04-11T20:16:09.998Z,8.88
2023-04-11T20:18:38.854Z,8.84
2023-04-11T20:21:09.707Z,8.83
2023-04-11T20:23:39.308Z,8.75
2023-04-11T20:26:10.203Z,8.80
2023-04-11T20:28:40.982Z,8.79
2023-04-11T20:31:09.810Z,8.83
2023-04-11T20:33:38.486Z,8.74
2023-04-11T20:36:07.847Z,8.80
2023-04-11T20:38:39.233Z,8.77
2023-04-11T20:41:08.830Z,8.75
2023-04-11T20:46:50.981Z,8.75
2023-04-11T20:49:28.380Z,8.73
2023-04-11T20:51:58.242Z,8.69
2023-04-11T20:54:27.733Z,8.61
2023-04-11T20:56:58.197Z,8.53
2023-04-11T20:59:35.725Z,8.50
2023-04-11T21:02:04.593Z,8.42
2023-04-11T21:04:33.109Z,8.38
2023-04-11T21:07:01.735Z,8.32
2023-04-11T21:09:32.581Z,8.34
2023-04-11T21:12:03.461Z,8.31
2023-04-11T21:14:33.428Z,8.31
2023-04-11T21:17:01.812Z,8.26
2023-04-11T21:19:30.916Z,8.29
2023-04-11T21:22:01.751Z,8.27
2023-04-11T21:24:32.837Z,8.24
2023-04-11T21:27:03.958Z,8.18
2023-04-11T21:29:36.421Z,8.15
2023-04-11T21:32:04.700Z,8.11
2023-04-11T21:34:33.207Z,8.11
2023-04-11T21:37:05.907Z,8.10
2023-04-11T21:39:34.362Z,8.09
2023-04-11T21:42:02.654Z,8.07
2023-04-11T21:44:31.203Z,8.07
2023-04-11T21:47:04.104Z,8.05
2023-04-11T21:49:33.422Z,8.06
2023-04-11T21:52:01.770Z,8.06
2023-04-11T21:54:29.970Z,8.10
2023-04-11T21:56:58.673Z,8.11
2023-04-11T21:59:27.482Z,8.07
2023-04-11T22:01:56.600Z,8.12
2023-04-11T22:04:29.314Z,8.09
2023-04-11T22:06:58.409Z,8.07
2023-04-11T22:09:29.130Z,8.04
2023-04-11T22:11:57.505Z,8.03
2023-04-11T22:14:27.703Z,8.01
2023-04-11T22:16:58.438Z,8.01
2023-04-11T22:19:28.622Z,8.00
2023-04-11T22:22:03.433Z,8.03
2023-04-11T22:24:31.902Z,7.99
2023-04-11T22:27:04.538Z,8.00
2023-04-11T22:29:34.595Z,7.99
2023-04-11T22:32:21.397Z,7.99
2023-04-11T22:34:51.226Z,7.96
2023-04-11T22:37:19.584Z,7.94
2023-04-11T22:39:47.936Z,7.94
2023-04-11T22:42:16.208Z,7.91
2023-04-11T22:44:44.508Z,7.93
2023-04-11T22:47:16.137Z,7.94
2023-04-11T22:49:45.104Z,7.95
2023-04-11T22:52:15.269Z,7.84
2023-04-11T22:54:43.890Z,8.00
2023-04-11T22:57:12.260Z,8.02
2023-04-11T22:59:42.623Z,8.09
2023-04-11T23:02:10.841Z,8.10
2023-04-11T23:04:39.293Z,8.11
2023-04-11T23:07:07.536Z,8.16
2023-04-11T23:09:37.256Z,8.17
2023-04-11T23:12:06.833Z,8.22
2023-04-11T23:14:34.995Z,8.26
2023-04-11T23:17:03.818Z,8.22
2023-04-11T23:19:57.670Z,8.26
2023-04-11T23:22:42.281Z,8.26
2023-04-11T23:25:17.237Z,8.23
2023-04-11T23:28:24.424Z,8.20
2023-04-11T23:31:17.917Z,8.21
2023-04-11T23:33:46.408Z,8.16
2023-04-11T23:36:15.695Z,8.17
2023-04-11T23:38:45.084Z,8.22
2023-04-11T23:41:14.749Z,8.21
2023-04-11T23:43:43.164Z,8.13
2023-04-11T23:46:12.374Z,8.09
2023-04-11T23:48:40.806Z,8.06
2023-04-11T23:54:30.007Z,7.95
2023-04-11T23:56:58.855Z,7.83
2023-04-11T23:59:27.130Z,7.74
